createdAt,value
2018-08-27T00:01:36.268Z,45.20
2018-08-27T00:04:12.531Z,45.70
2018-08-27T00:06:48.877Z,45.30
2018-08-27T00:09:25.319Z,45.50
2018-08-27T00:12:01.702Z,46.30
2018-08-27T00:14:38.168Z,45.90
2018-08-27T00:17:14.681Z,46.00
2018-08-27T00:19:51.159Z,46.00
2018-08-27T00:22:27.642Z,46.00
2018-08-27T00:25:04.212Z,45.50
2018-08-27T00:27:40.681Z,45.50
2018-08-27T00:30:16.999Z,45.90
2018-08-27T00:32:53.420Z,45.90
2018-08-27T00:35:29.884Z,45.90
2018-08-27T00:38:06.336Z,47.10
2018-08-27T00:40:42.760Z,47.10
2018-08-27T00:43:19.235Z,48.30
2018-08-27T00:45:55.726Z,48.10
2018-08-27T00:48:32.026Z,47.70
2018-08-27T00:51:08.497Z,46.20
2018-08-27T00:53:44.911Z,46.60
2018-08-27T00:56:21.276Z,46.00
2018-08-27T00:58:57.804Z,45.80
2018-08-27T01:01:34.243Z,47.30
2018-08-27T01:04:10.522Z,46.40
2018-08-27T01:06:47.202Z,46.20
2018-08-27T01:09:23.670Z,46.00
2018-08-27T01:12:00.059Z,45.20
2018-08-27T01:14:36.409Z,44.90
2018-08-27T01:17:12.976Z,45.50
2018-08-27T01:19:49.363Z,47.30
2018-08-27T01:22:25.899Z,46.10
2018-08-27T01:25:02.137Z,45.20
2018-08-27T01:27:38.586Z,45.10
2018-08-27T01:30:15.127Z,46.80
2018-08-27T01:32:51.555Z,47.80
2018-08-27T01:35:28.051Z,46.60
2018-08-27T01:38:05.353Z,47.30
2018-08-27T01:40:41.529Z,48.70
2018-08-27T01:43:18.278Z,48.20
2018-08-27T01:45:54.725Z,49.10
2018-08-27T01:48:31.412Z,49.30
2018-08-27T01:51:07.709Z,49.30
2018-08-27T01:53:44.219Z,49.70
2018-08-27T01:56:20.778Z,49.90
2018-08-27T01:58:57.100Z,50.20
2018-08-27T02:01:33.560Z,51.10
2018-08-27T02:04:09.939Z,50.90
2018-08-27T02:06:51.536Z,50.80
2018-08-27T02:09:27.954Z,51.10
2018-08-27T02:12:04.372Z,50.50
2018-08-27T02:14:40.885Z,50.10
2018-08-27T02:17:17.383Z,48.60
2018-08-27T02:19:53.709Z,48.10
2018-08-27T02:22:30.135Z,49.80
2018-08-27T02:25:06.661Z,50.00
2018-08-27T02:27:42.910Z,48.30
2018-08-27T02:30:19.218Z,46.50
2018-08-27T02:32:55.728Z,44.80
2018-08-27T02:35:32.315Z,43.70
2018-08-27T02:38:08.609Z,43.80
2018-08-27T02:40:45.077Z,43.70
2018-08-27T02:43:21.363Z,44.00
2018-08-27T02:45:57.833Z,43.60
2018-08-27T02:48:34.280Z,43.40
2018-08-27T02:51:10.764Z,43.90
2018-08-27T02:53:47.124Z,43.80
2018-08-27T02:56:23.594Z,42.90
2018-08-27T02:58:59.972Z,42.30
2018-08-27T03:01:36.491Z,42.10
2018-08-27T03:04:12.847Z,42.30
2018-08-27T03:06:49.308Z,41.50
2018-08-27T03:09:25.726Z,41.50
2018-08-27T03:12:02.075Z,41.60
2018-08-27T03:14:38.736Z,41.10
2018-08-27T03:17:15.106Z,41.20
2018-08-27T03:19:51.588Z,41.30
2018-08-27T03:22:28.106Z,41.70
2018-08-27T03:25:04.624Z,41.80
2018-08-27T03:27:40.976Z,41.70
2018-08-27T03:30:18.364Z,41.80
2018-08-27T03:32:54.853Z,42.60
2018-08-27T03:35:31.315Z,42.60
2018-08-27T03:38:07.825Z,42.90
2018-08-27T03:40:44.329Z,43.70
2018-08-27T03:43:20.684Z,43.90
2018-08-27T03:45:57.089Z,44.70
2018-08-27T03:48:40.387Z,44.60
2018-08-27T03:51:16.965Z,44.20
2018-08-27T03:53:53.375Z,44.30
2018-08-27T03:56:29.840Z,44.30
2018-08-27T03:59:06.292Z,45.00
2018-08-27T04:01:42.636Z,46.00
2018-08-27T04:04:19.134Z,45.70
2018-08-27T04:06:55.519Z,48.50
2018-08-27T04:09:32.963Z,50.70
2018-08-27T04:12:09.307Z,50.90
2018-08-27T04:14:46.137Z,51.10
2018-08-27T04:17:32.797Z,50.50
2018-08-27T04:20:09.212Z,50.90
2018-08-27T04:22:45.685Z,51.70
2018-08-27T04:25:21.971Z,52.60
2018-08-27T04:27:58.398Z,52.10
2018-08-27T04:30:34.824Z,51.80
2018-08-27T04:33:11.349Z,51.90
2018-08-27T04:35:47.712Z,51.90
2018-08-27T04:38:24.146Z,51.70
2018-08-27T04:41:00.552Z,54.50
2018-08-27T04:43:37.093Z,55.20
2018-08-27T04:46:13.515Z,52.40
2018-08-27T04:48:49.899Z,53.80
2018-08-27T04:51:26.287Z,53.10
2018-08-27T04:54:02.598Z,53.40
2018-08-27T04:56:38.971Z,53.90
2018-08-27T04:59:18.141Z,53.60
2018-08-27T05:01:54.427Z,53.80
2018-08-27T05:04:30.897Z,54.10
2018-08-27T05:07:07.294Z,55.20
2018-08-27T05:09:43.747Z,57.20
2018-08-27T05:12:20.135Z,62.10
2018-08-27T05:14:56.581Z,60.80
2018-08-27T05:17:33.073Z,62.80
2018-08-27T05:20:09.688Z,60.20
2018-08-27T05:22:46.070Z,60.70
2018-08-27T05:25:22.960Z,61.10
2018-08-27T05:27:59.378Z,59.60
2018-08-27T05:30:35.881Z,59.90
2018-08-27T05:33:12.238Z,59.90
2018-08-27T05:35:48.682Z,59.40
2018-08-27T05:38:25.072Z,61.40
2018-08-27T05:41:01.471Z,60.40
2018-08-27T05:43:38.092Z,60.90
2018-08-27T05:46:14.642Z,61.40
2018-08-27T05:48:51.103Z,59.90
2018-08-27T05:51:27.638Z,59.00
2018-08-27T05:54:04.206Z,58.00
2018-08-27T05:56:40.642Z,58.00
2018-08-27T05:59:21.254Z,60.20
2018-08-27T06:01:57.507Z,61.40
2018-08-27T06:04:34.030Z,60.10
2018-08-27T06:07:10.547Z,59.00
2018-08-27T06:09:48.125Z,59.30
2018-08-27T06:12:24.618Z,59.60
2018-08-27T06:15:01.056Z,58.40
2018-08-27T06:17:37.343Z,57.60
2018-08-27T06:20:13.648Z,57.00
2018-08-27T06:22:50.080Z,57.20
2018-08-27T06:25:26.810Z,57.50
2018-08-27T06:28:03.039Z,57.90
2018-08-27T06:30:39.525Z,58.00
2018-08-27T06:33:17.373Z,58.40
2018-08-27T06:35:53.741Z,58.90
2018-08-27T06:38:32.031Z,59.10
2018-08-27T06:41:08.639Z,59.40
2018-08-27T06:43:45.139Z,59.80
2018-08-27T06:46:21.834Z,59.00
2018-08-27T06:48:59.312Z,60.50
2018-08-27T06:51:35.781Z,58.70
2018-08-27T06:54:12.321Z,60.10
2018-08-27T06:56:48.837Z,59.20
2018-08-27T06:59:25.280Z,59.00
2018-08-27T07:02:02.234Z,59.50
2018-08-27T07:04:38.440Z,59.80
2018-08-27T07:07:14.977Z,59.40
2018-08-27T07:09:51.350Z,59.90
2018-08-27T07:12:27.840Z,63.60
2018-08-27T07:15:04.135Z,66.00
2018-08-27T07:17:40.555Z,69.80
2018-08-27T07:20:17.014Z,72.10
2018-08-27T07:22:53.236Z,76.40
2018-08-27T07:25:29.746Z,74.40
2018-08-27T07:28:06.639Z,76.60
2018-08-27T07:30:43.052Z,74.00
2018-08-27T07:33:19.541Z,76.60
2018-08-27T07:35:55.926Z,73.60
2018-08-27T07:38:32.338Z,73.80
2018-08-27T07:41:08.869Z,74.60
2018-08-27T07:43:45.412Z,72.60
2018-08-27T07:46:22.017Z,70.30
2018-08-27T07:48:58.508Z,69.20
2018-08-27T07:51:34.953Z,68.80
2018-08-27T07:54:11.270Z,66.80
2018-08-27T07:56:47.826Z,67.50
2018-08-27T07:59:24.112Z,66.00
2018-08-27T08:02:00.729Z,66.20
2018-08-27T08:04:37.250Z,66.50
2018-08-27T08:07:13.537Z,67.60
2018-08-27T08:09:49.912Z,68.50
2018-08-27T08:12:26.294Z,68.60
2018-08-27T08:15:02.769Z,69.00
2018-08-27T08:17:39.264Z,69.30
2018-08-27T08:20:15.606Z,69.80
2018-08-27T08:22:52.219Z,70.00
2018-08-27T08:25:28.706Z,70.00
2018-08-27T08:28:05.167Z,69.60
2018-08-27T08:30:41.610Z,71.00
2018-08-27T08:33:18.034Z,69.60
2018-08-27T08:35:54.264Z,70.80
2018-08-27T08:38:30.684Z,71.00
2018-08-27T08:41:07.023Z,70.60
2018-08-27T08:43:43.456Z,71.00
2018-08-27T08:46:20.063Z,73.10
2018-08-27T08:48:56.612Z,73.20
2018-08-27T08:51:34.574Z,72.30
2018-08-27T08:54:10.925Z,72.50
2018-08-27T08:56:47.653Z,71.30
2018-08-27T08:59:23.947Z,72.30
2018-08-27T09:02:00.291Z,73.40
2018-08-27T09:04:37.095Z,72.60
2018-08-27T09:07:13.742Z,73.20
2018-08-27T09:09:50.063Z,72.40
2018-08-27T09:12:26.499Z,71.90
2018-08-27T09:15:03.051Z,69.70
2018-08-27T09:17:40.319Z,69.20
2018-08-27T09:20:16.765Z,67.70
2018-08-27T09:22:53.173Z,67.60
2018-08-27T09:25:30.772Z,67.50
2018-08-27T09:28:07.268Z,67.10
2018-08-27T09:30:43.671Z,67.10
2018-08-27T09:33:20.145Z,68.20
2018-08-27T09:35:56.650Z,67.20
2018-08-27T09:38:33.051Z,67.90
2018-08-27T09:41:09.488Z,67.80
2018-08-27T09:43:45.876Z,68.40
2018-08-27T09:46:22.199Z,67.40
2018-08-27T09:48:59.214Z,66.50
2018-08-27T09:51:36.274Z,66.20
2018-08-27T09:54:13.154Z,66.00
2018-08-27T09:56:49.362Z,65.00
2018-08-27T09:59:25.860Z,65.50
2018-08-27T10:02:04.041Z,66.00
2018-08-27T10:04:40.342Z,65.70
2018-08-27T10:07:16.852Z,64.70
2018-08-27T10:09:53.205Z,63.40
2018-08-27T10:12:29.586Z,62.70
2018-08-27T10:15:08.128Z,62.10
2018-08-27T10:17:44.478Z,62.60
2018-08-27T10:20:20.844Z,63.20
2018-08-27T10:22:57.384Z,63.60
2018-08-27T10:25:33.967Z,63.60
2018-08-27T10:28:10.566Z,63.90
2018-08-27T10:30:47.608Z,64.50
2018-08-27T10:33:24.044Z,64.20
2018-08-27T10:36:00.534Z,64.30
2018-08-27T10:38:36.884Z,64.00
2018-08-27T10:41:15.482Z,64.70
2018-08-27T10:43:51.930Z,65.50
2018-08-27T10:46:28.467Z,63.90
2018-08-27T10:49:04.828Z,64.30
2018-08-27T10:51:41.803Z,63.40
2018-08-27T10:54:18.328Z,63.80
2018-08-27T10:56:54.769Z,64.40
2018-08-27T10:59:31.225Z,64.00
2018-08-27T11:02:07.769Z,63.90
2018-08-27T11:04:44.128Z,64.10
2018-08-27T11:07:24.551Z,65.00
2018-08-27T11:10:01.019Z,65.00
2018-08-27T11:12:37.496Z,65.70
2018-08-27T11:15:13.982Z,65.80
2018-08-27T11:17:50.470Z,66.00
2018-08-27T11:20:27.100Z,65.60
2018-08-27T11:23:03.242Z,65.40
2018-08-27T11:25:39.611Z,65.20
2018-08-27T11:28:16.139Z,65.00
2018-08-27T11:30:52.638Z,64.90
2018-08-27T11:33:29.110Z,64.60
2018-08-27T11:36:05.920Z,65.60
2018-08-27T11:38:42.355Z,64.90
2018-08-27T11:41:18.662Z,65.20
2018-08-27T11:43:55.059Z,65.30
2018-08-27T11:46:31.605Z,64.50
2018-08-27T11:49:08.062Z,64.50
2018-08-27T11:51:44.452Z,64.60
2018-08-27T11:54:25.132Z,64.10
2018-08-27T11:57:06.053Z,63.70
2018-08-27T11:59:42.547Z,62.80
2018-08-27T12:02:18.954Z,60.70
2018-08-27T12:04:55.539Z,59.50
2018-08-27T12:07:31.766Z,60.20
2018-08-27T12:10:08.451Z,60.10
2018-08-27T12:12:45.340Z,60.00
2018-08-27T12:15:21.807Z,59.10
2018-08-27T12:17:58.212Z,59.70
2018-08-27T12:20:34.450Z,60.00
2018-08-27T12:23:11.075Z,59.50
2018-08-27T12:25:47.550Z,60.40
2018-08-27T12:28:24.155Z,61.10
2018-08-27T12:31:00.801Z,59.20
2018-08-27T12:33:37.103Z,59.40
2018-08-27T12:36:13.518Z,59.50
2018-08-27T12:38:50.038Z,59.40
2018-08-27T12:41:26.417Z,59.20
2018-08-27T12:44:02.701Z,59.30
2018-08-27T12:46:39.119Z,60.00
2018-08-27T12:49:15.645Z,59.80
2018-08-27T12:51:52.111Z,59.40
2018-08-27T12:54:28.626Z,59.30
2018-08-27T12:57:05.107Z,59.70
2018-08-27T12:59:42.036Z,59.30
2018-08-27T13:02:18.477Z,58.70
2018-08-27T13:04:54.907Z,58.30
2018-08-27T13:07:31.376Z,58.20
2018-08-27T13:10:08.041Z,58.20
2018-08-27T13:12:44.319Z,58.50
2018-08-27T13:15:20.799Z,59.00
2018-08-27T13:17:57.231Z,57.70
2018-08-27T13:20:33.632Z,58.50
2018-08-27T13:23:10.031Z,58.30
2018-08-27T13:25:46.542Z,57.50
2018-08-27T13:28:22.838Z,57.80
2018-08-27T13:30:59.200Z,57.90
2018-08-27T13:33:35.653Z,58.30
2018-08-27T13:36:12.414Z,58.40
2018-08-27T13:38:48.905Z,58.20
2018-08-27T13:41:25.363Z,58.70
2018-08-27T13:44:01.847Z,59.50
2018-08-27T13:46:38.817Z,60.10
2018-08-27T13:49:15.289Z,60.60
2018-08-27T13:51:55.826Z,61.30
2018-08-27T13:54:32.501Z,61.20
2018-08-27T13:57:09.036Z,62.30
2018-08-27T13:59:45.573Z,61.20
2018-08-27T14:02:22.035Z,61.10
2018-08-27T14:04:58.465Z,61.40
2018-08-27T14:07:34.892Z,60.20
2018-08-27T14:10:11.380Z,61.00
2018-08-27T14:12:47.929Z,60.70
2018-08-27T14:15:24.389Z,61.30
2018-08-27T14:18:00.641Z,61.20
2018-08-27T14:20:37.105Z,60.70
2018-08-27T14:23:13.539Z,60.00
2018-08-27T14:25:50.115Z,60.20
2018-08-27T14:28:26.677Z,60.40
2018-08-27T14:31:03.073Z,61.30
2018-08-27T14:33:39.690Z,61.50
2018-08-27T14:36:16.273Z,61.30
2018-08-27T14:38:52.849Z,62.00
2018-08-27T14:41:29.315Z,61.70
2018-08-27T14:44:10.693Z,62.10
2018-08-27T14:47:17.702Z,62.30
2018-08-27T14:49:54.212Z,62.20
2018-08-27T14:52:30.495Z,61.80
2018-08-27T14:55:07.167Z,61.30
2018-08-27T14:57:43.591Z,61.80
2018-08-27T15:00:20.009Z,60.90
2018-08-27T15:02:56.448Z,60.10
2018-08-27T15:05:32.850Z,59.50
2018-08-27T15:08:09.308Z,59.60
2018-08-27T15:10:45.707Z,59.10
2018-08-27T15:13:22.082Z,59.00
2018-08-27T15:15:58.514Z,58.80
2018-08-27T15:18:34.904Z,58.50
2018-08-27T15:21:11.333Z,57.70
2018-08-27T15:23:47.733Z,57.90
2018-08-27T15:26:24.171Z,58.20
2018-08-27T15:29:00.504Z,58.00
2018-08-27T15:31:37.107Z,58.10
2018-08-27T15:34:13.486Z,58.10
2018-08-27T15:36:49.940Z,58.00
2018-08-27T15:39:26.298Z,57.80
2018-08-27T15:42:02.772Z,57.80
2018-08-27T15:44:39.267Z,57.90
2018-08-27T15:47:15.693Z,57.80
2018-08-27T15:49:52.148Z,58.40
2018-08-27T15:52:28.648Z,57.90
2018-08-27T15:55:05.168Z,57.80
2018-08-27T15:57:41.430Z,58.00
2018-08-27T16:00:17.818Z,57.80
2018-08-27T16:02:54.263Z,57.80
2018-08-27T16:05:30.717Z,58.30
2018-08-27T16:08:06.902Z,58.60
2018-08-27T16:10:43.465Z,59.10
2018-08-27T16:13:21.067Z,58.80
2018-08-27T16:15:57.548Z,58.90
2018-08-27T16:18:33.964Z,58.20
2018-08-27T16:21:10.826Z,58.30
2018-08-27T16:23:47.279Z,58.00
2018-08-27T16:26:23.757Z,58.20
2018-08-27T16:29:00.266Z,58.00
2018-08-27T16:31:36.694Z,58.40
2018-08-27T16:34:13.021Z,58.50
2018-08-27T16:36:49.426Z,58.20
2018-08-27T16:39:26.015Z,58.40
2018-08-27T16:42:02.484Z,58.20
2018-08-27T16:44:41.108Z,58.50
2018-08-27T16:47:17.359Z,58.50
2018-08-27T16:49:54.846Z,58.20
2018-08-27T16:52:31.842Z,58.50
2018-08-27T16:55:08.186Z,59.00
2018-08-27T16:57:44.505Z,58.80
2018-08-27T17:00:21.132Z,58.90
2018-08-27T17:02:57.654Z,59.20
2018-08-27T17:05:34.192Z,59.50
2018-08-27T17:08:10.851Z,59.40
2018-08-27T17:10:47.175Z,59.70
2018-08-27T17:13:24.511Z,60.20
2018-08-27T17:16:00.948Z,60.30
2018-08-27T17:18:37.563Z,60.40
2018-08-27T17:21:15.108Z,60.30
2018-08-27T17:23:51.611Z,60.60
2018-08-27T17:26:28.089Z,61.20
2018-08-27T17:29:05.800Z,61.70
2018-08-27T17:31:43.276Z,61.50
2018-08-27T17:34:19.519Z,61.90
2018-08-27T17:36:56.011Z,62.10
2018-08-27T17:39:33.487Z,62.20
2018-08-27T17:42:10.009Z,62.70
2018-08-27T17:44:47.424Z,62.80
2018-08-27T17:47:23.790Z,63.00
2018-08-27T17:50:00.297Z,63.10
2018-08-27T17:52:36.705Z,63.30
2018-08-27T17:55:13.267Z,63.50
2018-08-27T17:57:49.703Z,63.80
2018-08-27T18:00:26.120Z,64.00
2018-08-27T18:03:03.178Z,63.80
2018-08-27T18:05:39.608Z,64.20
2018-08-27T18:08:16.174Z,64.30
2018-08-27T18:10:52.675Z,64.70
2018-08-27T18:13:30.480Z,65.00
2018-08-27T18:16:07.085Z,65.10
2018-08-27T18:18:44.012Z,65.40
2018-08-27T18:21:20.382Z,65.90
2018-08-27T18:23:57.075Z,66.10
2018-08-27T18:26:33.495Z,66.00
2018-08-27T18:29:10.042Z,66.10
2018-08-27T18:31:46.502Z,66.30
2018-08-27T18:34:22.908Z,67.10
2018-08-27T18:36:59.464Z,67.40
2018-08-27T18:39:35.933Z,67.70
2018-08-27T18:42:12.408Z,68.00
2018-08-27T18:44:48.848Z,68.40
2018-08-27T18:47:25.351Z,68.70
2018-08-27T18:50:02.297Z,68.80
2018-08-27T18:52:39.038Z,68.80
2018-08-27T18:55:15.430Z,68.50
2018-08-27T18:57:52.138Z,69.00
2018-08-27T19:00:28.623Z,68.90
2018-08-27T19:03:06.277Z,69.10
2018-08-27T19:05:42.921Z,69.80
2018-08-27T19:08:19.503Z,70.30
2018-08-27T19:10:55.895Z,70.20
2018-08-27T19:13:32.550Z,70.20
2018-08-27T19:16:09.014Z,70.40
2018-08-27T19:18:45.610Z,70.60
2018-08-27T19:21:22.036Z,71.90
2018-08-27T19:23:58.818Z,71.60
2018-08-27T19:26:35.322Z,72.30
2018-08-27T19:29:11.648Z,72.50
2018-08-27T19:31:48.149Z,73.30
2018-08-27T19:34:24.705Z,73.70
2018-08-27T19:37:01.437Z,74.60
2018-08-27T19:39:38.113Z,74.10
2018-08-27T19:42:14.575Z,74.00
2018-08-27T19:44:52.114Z,74.70
2018-08-27T19:47:28.535Z,75.50
2018-08-27T19:50:05.089Z,75.40
2018-08-27T19:52:41.775Z,75.80
2018-08-27T19:55:18.117Z,75.90
2018-08-27T19:57:54.622Z,76.50
2018-08-27T20:00:31.201Z,76.20
2018-08-27T20:03:07.526Z,76.60
2018-08-27T20:05:43.994Z,76.80
2018-08-27T20:08:20.508Z,76.30
2018-08-27T20:10:57.036Z,76.50
2018-08-27T20:13:33.470Z,76.70
2018-08-27T20:16:09.763Z,77.10
2018-08-27T20:18:46.230Z,77.30
2018-08-27T20:21:22.756Z,77.40
2018-08-27T20:23:59.207Z,78.10
2018-08-27T20:26:35.699Z,78.60
2018-08-27T20:29:13.553Z,78.00
2018-08-27T20:31:50.055Z,78.50
2018-08-27T20:34:26.341Z,78.70
2018-08-27T20:37:02.852Z,78.80
2018-08-27T20:39:39.486Z,78.70
2018-08-27T20:42:15.842Z,79.10
2018-08-27T20:44:52.423Z,78.80
2018-08-27T20:47:29.218Z,79.10
2018-08-27T20:50:06.203Z,78.80
2018-08-27T20:52:42.477Z,79.30
2018-08-27T20:55:19.015Z,80.00
2018-08-27T20:57:55.463Z,80.40
2018-08-27T21:00:31.917Z,80.20
2018-08-27T21:03:08.422Z,81.00
2018-08-27T21:05:44.656Z,80.80
2018-08-27T21:08:21.053Z,80.20
2018-08-27T21:10:57.587Z,80.30
2018-08-27T21:13:34.088Z,79.60
2018-08-27T21:16:10.535Z,80.00
2018-08-27T21:18:46.945Z,79.30
2018-08-27T21:21:23.589Z,80.00
2018-08-27T21:24:00.553Z,81.30
2018-08-27T21:26:36.923Z,82.30
2018-08-27T21:29:13.292Z,81.10
2018-08-27T21:31:49.758Z,82.30
2018-08-27T21:34:26.355Z,82.10
2018-08-27T21:37:02.707Z,81.30
2018-08-27T21:39:39.158Z,81.70
2018-08-27T21:42:16.162Z,82.20
2018-08-27T21:44:52.680Z,82.00
2018-08-27T21:47:29.133Z,82.20
2018-08-27T21:50:05.690Z,82.60
2018-08-27T21:52:42.204Z,82.20
2018-08-27T21:55:18.556Z,82.70
2018-08-27T21:57:55.007Z,82.60
2018-08-27T22:00:31.517Z,83.00
2018-08-27T22:03:13.707Z,84.00
2018-08-27T22:05:50.212Z,84.50
2018-08-27T22:08:26.779Z,84.60
2018-08-27T22:11:03.286Z,86.50
2018-08-27T22:13:39.632Z,86.80
2018-08-27T22:16:15.955Z,87.80
2018-08-27T22:18:52.441Z,88.60
2018-08-27T22:21:29.255Z,88.50
2018-08-27T22:24:05.591Z,83.40
2018-08-27T22:26:42.022Z,82.90
2018-08-27T22:29:18.270Z,79.90
2018-08-27T22:31:54.711Z,75.80
2018-08-27T22:34:31.106Z,70.50
2018-08-27T22:37:09.138Z,68.20
2018-08-27T22:39:45.385Z,67.90
2018-08-27T22:42:21.777Z,64.70
2018-08-27T22:44:58.348Z,64.00
2018-08-27T22:47:34.823Z,61.80
2018-08-27T22:50:11.252Z,61.60
2018-08-27T22:52:47.515Z,60.90
2018-08-27T22:55:23.931Z,60.50
2018-08-27T22:58:00.370Z,60.90
2018-08-27T23:00:36.748Z,61.50
2018-08-27T23:03:18.305Z,61.20
2018-08-27T23:05:54.708Z,60.90
2018-08-27T23:08:31.346Z,59.10
2018-08-27T23:11:07.848Z,58.90
2018-08-27T23:13:44.401Z,59.20
2018-08-27T23:16:25.988Z,59.60
2018-08-27T23:19:03.699Z,59.20
2018-08-27T23:21:40.032Z,59.00
2018-08-27T23:24:16.490Z,59.30
2018-08-27T23:26:52.866Z,59.70
2018-08-27T23:29:29.345Z,60.40
2018-08-27T23:32:06.161Z,59.60
2018-08-27T23:34:42.432Z,59.30
2018-08-27T23:37:18.853Z,60.70
2018-08-27T23:39:55.342Z,59.80
2018-08-27T23:42:31.827Z,59.40
2018-08-27T23:45:08.371Z,60.20
2018-08-27T23:47:44.806Z,59.60
2018-08-27T23:50:21.191Z,59.40
2018-08-27T23:52:57.662Z,59.60
2018-08-27T23:55:34.130Z,59.70
2018-08-27T23:58:10.623Z,59.70
